Sincerity Ace — 3FFD7 — position and weather

sailwx.info

Track history (hours):
 
Tides and Currents Weather Stations Pressure Air Temp Water Temp Dewpoint Dewpoint Depression Visibility Wind Speed Wind Dir Waves Ship Positions

Sincerity Ace

Last reported at 2017-Jun-27 13:30 UTC. Time now 2017-Jun-27 14:10 UTC.
Position N 51°20' E 003°13'.

Length 200 m; draft 9 m.

Type: Cargo ship. MMSI: 351690000.

Date/timePositionNaut miles runAvg speedWind from/ knotsBaromVisibWave heightAir tempDewpointWater temp
2017-Jun-27 13:30N 51°20' E 003°13'0 0.0
2017-Jun-27 13:00N 51°20' E 003°13'2 4.1
2017-Jun-27 12:30N 51°18' E 003°14'0 0.1
2017-Jun-27 11:59N 51°18' E 003°14'0 0.0
2017-Jun-27 11:29N 51°18' E 003°14'0 0.0
2017-Jun-27 10:59N 51°18' E 003°14'0 0.0
2017-Jun-27 10:29N 51°18' E 003°14'0 0.0
2017-Jun-27 09:59N 51°18' E 003°14'0 0.0
2017-Jun-27 09:29N 51°18' E 003°14'0 0.0
2017-Jun-27 08:59N 51°18' E 003°14'0 0.0
2017-Jun-27 08:29N 51°18' E 003°14'0 0.0
2017-Jun-27 07:59N 51°18' E 003°14'0 0.0
2017-Jun-27 07:29N 51°18' E 003°14'0 0.0
2017-Jun-27 06:59N 51°18' E 003°14'0 0.0
2017-Jun-27 06:29N 51°18' E 003°14'0 0.0
2017-Jun-27 05:59N 51°18' E 003°14'0 0.0
2017-Jun-27 05:29N 51°18' E 003°14'0 0.0
2017-Jun-27 04:59N 51°18' E 003°14'0 0.0
2017-Jun-27 04:29N 51°18' E 003°14'0 0.0
2017-Jun-27 03:59N 51°18' E 003°14'0 0.0
2017-Jun-27 03:29N 51°18' E 003°14'0 0.0
2017-Jun-27 02:59N 51°18' E 003°14'0 0.0
2017-Jun-27 02:29N 51°18' E 003°14'0 0.0
2017-Jun-27 01:59N 51°18' E 003°14'0 0.0
2017-Jun-27 01:29N 51°18' E 003°14'0 0.0
2017-Jun-27 00:59N 51°18' E 003°14'0 0.0
2017-Jun-27 00:29N 51°18' E 003°14'0 0.0
2017-Jun-26 23:59N 51°18' E 003°14'0 0.0
2017-Jun-26 23:29N 51°18' E 003°14'0 0.0
2017-Jun-26 22:59N 51°18' E 003°14'0 0.0
2017-Jun-26 22:29N 51°18' E 003°14'0 0.3
2017-Jun-26 22:01N 51°18' E 003°14'2 4.1
2017-Jun-26 21:29N 51°20' E 003°13'0 0.0
2017-Jun-26 21:01N 51°20' E 003°13'0 0.3
2017-Jun-26 20:31N 51°20' E 003°13'2 5.0
2017-Jun-26 20:01N 51°22' E 003°11'3 7.0
2017-Jun-26 19:31N 51°24' E 003°06'611.5
2017-Jun-26 19:01N 51°23' E 002°57'713.3
2017-Jun-26 18:30N 51°22' E 002°46'510.8
2017-Jun-26 18:00N 51°22' E 002°38'2 4.0
2017-Jun-26 17:30N 51°22' E 002°35'0 0.9
2017-Jun-26 17:00N 51°22' E 002°34'3 6.1
2017-Jun-26 16:30N 51°21' E 002°29'510.3
2017-Jun-26 16:00N 51°19' E 002°21'613.0
2017-Jun-26 15:30N 51°16' E 002°13'713.3
2017-Jun-26 15:00N 51°13' E 002°03'917.2
2017-Jun-26 14:30N 51°08' E 001°52'1818.2
2017-Jun-26 13:30N 50°56' E 001°31'917.7
2017-Jun-26 13:00N 50°47' E 001°26'816.0
2017-Jun-26 12:30N 50°40' E 001°20'915.8
2017-Jun-26 11:55N 50°34' E 001°09'716.1
2017-Jun-26 11:30N 50°30' E 001°01'3017.0
2017-Jun-26 09:43N 50°21' E 000°15'1017.1
2017-Jun-26 09:09N 50°18' E 000°01'316.8
2017-Jun-26 09:00N 50°17' W 000°03'816.6
2017-Jun-26 08:30N 50°14' W 000°15'816.5
2017-Jun-26 08:00N 50°10' W 000°26'816.3
2017-Jun-26 07:30N 50°07' W 000°38'815.9
2017-Jun-26 07:00N 50°03' W 000°49'815.3
2017-Jun-26 06:30N 50°00' W 000°60'714.6
2017-Jun-26 06:00N 49°57' W 001°10'713.8
2017-Jun-26 05:30N 49°54' W 001°20'713.0
2017-Jun-26 05:00N 49°51' W 001°29'612.4
2017-Jun-26 04:30N 49°48' W 001°37'5 9.3
2017-Jun-26 04:00N 49°45' W 001°42'4 8.6
2017-Jun-26 03:30N 49°49' W 001°45'5 9.2
2017-Jun-26 03:00N 49°51' W 001°51'5 9.5
2017-Jun-26 02:30N 49°53' W 001°58'4 7.0
2017-Jun-26 02:00N 49°54' W 002°03'2 3.9
2017-Jun-26 01:30N 49°55' W 002°01'3 6.3
2017-Jun-26 01:00N 49°56' W 002°06'5 9.5
2017-Jun-26 00:30N 49°57' W 002°13'612.2
2017-Jun-26 00:00N 49°55' W 002°22'815.3
2017-Jun-25 23:30N 49°53' W 002°33'815.6
2017-Jun-25 23:00N 49°51' W 002°45'815.5
2017-Jun-25 22:30N 49°48' W 002°55'816.0
2017-Jun-25 22:00N 49°44' W 003°06'816.1
2017-Jun-25 21:30N 49°40' W 003°17'816.2
2017-Jun-25 21:00N 49°36' W 003°28'816.2
2017-Jun-25 20:29N 49°31' W 003°39'916.4
2017-Jun-25 19:58N 49°27' W 003°50'2116.7
2017-Jun-25 18:42N 49°16' W 004°18'317.0
2017-Jun-25 18:30N 49°14' W 004°23'917.2
2017-Jun-25 17:59N 49°11' W 004°35'2017.2
2017-Jun-25 16:50N 49°01' W 005°02'517.1
2017-Jun-25 16:30N 48°59' W 005°09'917.1
2017-Jun-25 16:00N 48°55' W 005°21'816.8
2017-Jun-25 15:30N 48°50' W 005°32'14615.3
2017-Jun-25 06:00N 46°42' W 007°14'43211.1
2017-Jun-23 14:56N 40°01' W 010°56'1818.9
2017-Jun-23 13:58N 39°46' W 011°10'918.8
2017-Jun-23 13:30N 39°39' W 011°17'1419.0
2017-Jun-23 12:45N 39°26' W 011°25'818.8
2017-Jun-23 12:19N 39°19' W 011°28'618.3
2017-Jun-23 12:00N 39°13' W 011°30'917.7
2017-Jun-23 11:30N 39°05' W 011°34'917.6
2017-Jun-23 10:59N 38°56' W 011°38'2616.9
2017-Jun-23 09:28N 38°32' W 011°48'1416.4
2017-Jun-23 08:38N 38°19' W 011°53'416.6
2017-Jun-23 08:23N 38°15' W 011°55'14416.8
2017-Jun-22 23:48N 35°58' W 012°51'717.3
2017-Jun-22 23:23N 35°51' W 012°54'617.0
2017-Jun-22 23:00N 35°45' W 012°56'28917.3
2017-Jun-22 06:21N 31°10' W 014°43'1317.0
2017-Jun-22 05:33N 30°57' W 014°48'616.9
2017-Jun-22 05:12N 30°51' W 014°50'2317.0
2017-Jun-22 03:49N 30°29' W 014°58'616.9
2017-Jun-22 03:29N 30°24' W 015°00'1017.0
2017-Jun-22 02:53N 30°14' W 015°04'717.0
2017-Jun-22 02:30N 30°08' W 015°06'917.1
2017-Jun-22 01:58N 29°59' W 015°10'817.2
2017-Jun-22 01:30N 29°52' W 015°12'917.2
2017-Jun-22 01:00N 29°44' W 015°15'917.0
2017-Jun-22 00:30N 29°35' W 015°19'1017.1
2017-Jun-21 23:56N 29°26' W 015°22'1217.3
2017-Jun-21 23:16N 29°15' W 015°26'1017.0
2017-Jun-21 22:42N 29°06' W 015°29'316.6
2017-Jun-21 22:30N 29°03' W 015°31'1816.9
2017-Jun-21 21:25N 28°45' W 015°37'717.5
2017-Jun-21 21:00N 28°38' W 015°40'817.0
2017-Jun-21 20:30N 28°31' W 015°45'917.3
2017-Jun-21 20:00N 28°25' W 015°51'917.1
2017-Jun-21 19:30N 28°18' W 015°57'917.6
2017-Jun-21 19:00N 28°11' W 016°04'1516.9
2017-Jun-21 18:09N 28°00' W 016°14'516.5
2017-Jun-21 17:52N 27°56' W 016°16'716.9
2017-Jun-21 17:28N 27°49' W 016°17'  
Track history (hours):
 
Tides and Currents Weather Stations Pressure Air Temp Water Temp Dewpoint Dewpoint Depression Visibility Wind Speed Wind Dir Waves Ship Positions

Sincerity Ace

Last reported at 2017-Jun-27 13:30 UTC. Time now 2017-Jun-27 14:10 UTC.
Position N 51°20' E 003°13'.

Length 200 m; draft 9 m.

Type: Cargo ship. MMSI: 351690000.

Date/timePositionNaut miles runAvg speedWind from/ knotsBaromVisibWave heightAir tempDewpointWater temp
2017-Jun-27 13:30N 51°20' E 003°13'0 0.0
2017-Jun-27 13:00N 51°20' E 003°13'2 4.1
2017-Jun-27 12:30N 51°18' E 003°14'0 0.1
2017-Jun-27 11:59N 51°18' E 003°14'0 0.0
2017-Jun-27 11:29N 51°18' E 003°14'0 0.0
2017-Jun-27 10:59N 51°18' E 003°14'0 0.0
2017-Jun-27 10:29N 51°18' E 003°14'0 0.0
2017-Jun-27 09:59N 51°18' E 003°14'0 0.0
2017-Jun-27 09:29N 51°18' E 003°14'0 0.0
2017-Jun-27 08:59N 51°18' E 003°14'0 0.0
2017-Jun-27 08:29N 51°18' E 003°14'0 0.0
2017-Jun-27 07:59N 51°18' E 003°14'0 0.0
2017-Jun-27 07:29N 51°18' E 003°14'0 0.0
2017-Jun-27 06:59N 51°18' E 003°14'0 0.0
2017-Jun-27 06:29N 51°18' E 003°14'0 0.0
2017-Jun-27 05:59N 51°18' E 003°14'0 0.0
2017-Jun-27 05:29N 51°18' E 003°14'0 0.0
2017-Jun-27 04:59N 51°18' E 003°14'0 0.0
2017-Jun-27 04:29N 51°18' E 003°14'0 0.0
2017-Jun-27 03:59N 51°18' E 003°14'0 0.0
2017-Jun-27 03:29N 51°18' E 003°14'0 0.0
2017-Jun-27 02:59N 51°18' E 003°14'0 0.0
2017-Jun-27 02:29N 51°18' E 003°14'0 0.0
2017-Jun-27 01:59N 51°18' E 003°14'0 0.0
2017-Jun-27 01:29N 51°18' E 003°14'0 0.0
2017-Jun-27 00:59N 51°18' E 003°14'0 0.0
2017-Jun-27 00:29N 51°18' E 003°14'0 0.0
2017-Jun-26 23:59N 51°18' E 003°14'0 0.0
2017-Jun-26 23:29N 51°18' E 003°14'0 0.0
2017-Jun-26 22:59N 51°18' E 003°14'0 0.0
2017-Jun-26 22:29N 51°18' E 003°14'0 0.3
2017-Jun-26 22:01N 51°18' E 003°14'2 4.1
2017-Jun-26 21:29N 51°20' E 003°13'0 0.0
2017-Jun-26 21:01N 51°20' E 003°13'0 0.3
2017-Jun-26 20:31N 51°20' E 003°13'2 5.0
2017-Jun-26 20:01N 51°22' E 003°11'3 7.0
2017-Jun-26 19:31N 51°24' E 003°06'611.5
2017-Jun-26 19:01N 51°23' E 002°57'713.3
2017-Jun-26 18:30N 51°22' E 002°46'510.8
2017-Jun-26 18:00N 51°22' E 002°38'2 4.0
2017-Jun-26 17:30N 51°22' E 002°35'0 0.9
2017-Jun-26 17:00N 51°22' E 002°34'3 6.1
2017-Jun-26 16:30N 51°21' E 002°29'510.3
2017-Jun-26 16:00N 51°19' E 002°21'613.0
2017-Jun-26 15:30N 51°16' E 002°13'713.3
2017-Jun-26 15:00N 51°13' E 002°03'917.2
2017-Jun-26 14:30N 51°08' E 001°52'1818.2
2017-Jun-26 13:30N 50°56' E 001°31'917.7
2017-Jun-26 13:00N 50°47' E 001°26'816.0
2017-Jun-26 12:30N 50°40' E 001°20'915.8
2017-Jun-26 11:55N 50°34' E 001°09'716.1
2017-Jun-26 11:30N 50°30' E 001°01'3017.0
2017-Jun-26 09:43N 50°21' E 000°15'1017.1
2017-Jun-26 09:09N 50°18' E 000°01'316.8
2017-Jun-26 09:00N 50°17' W 000°03'816.6
2017-Jun-26 08:30N 50°14' W 000°15'816.5
2017-Jun-26 08:00N 50°10' W 000°26'816.3
2017-Jun-26 07:30N 50°07' W 000°38'815.9
2017-Jun-26 07:00N 50°03' W 000°49'815.3
2017-Jun-26 06:30N 50°00' W 000°60'714.6
2017-Jun-26 06:00N 49°57' W 001°10'713.8
2017-Jun-26 05:30N 49°54' W 001°20'713.0
2017-Jun-26 05:00N 49°51' W 001°29'612.4
2017-Jun-26 04:30N 49°48' W 001°37'5 9.3
2017-Jun-26 04:00N 49°45' W 001°42'4 8.6
2017-Jun-26 03:30N 49°49' W 001°45'5 9.2
2017-Jun-26 03:00N 49°51' W 001°51'5 9.5
2017-Jun-26 02:30N 49°53' W 001°58'4 7.0
2017-Jun-26 02:00N 49°54' W 002°03'2 3.9
2017-Jun-26 01:30N 49°55' W 002°01'3 6.3
2017-Jun-26 01:00N 49°56' W 002°06'5 9.5
2017-Jun-26 00:30N 49°57' W 002°13'612.2
2017-Jun-26 00:00N 49°55' W 002°22'815.3
2017-Jun-25 23:30N 49°53' W 002°33'815.6
2017-Jun-25 23:00N 49°51' W 002°45'815.5
2017-Jun-25 22:30N 49°48' W 002°55'816.0
2017-Jun-25 22:00N 49°44' W 003°06'816.1
2017-Jun-25 21:30N 49°40' W 003°17'816.2
2017-Jun-25 21:00N 49°36' W 003°28'816.2
2017-Jun-25 20:29N 49°31' W 003°39'916.4
2017-Jun-25 19:58N 49°27' W 003°50'2116.7
2017-Jun-25 18:42N 49°16' W 004°18'317.0
2017-Jun-25 18:30N 49°14' W 004°23'917.2
2017-Jun-25 17:59N 49°11' W 004°35'2017.2
2017-Jun-25 16:50N 49°01' W 005°02'517.1
2017-Jun-25 16:30N 48°59' W 005°09'917.1
2017-Jun-25 16:00N 48°55' W 005°21'816.8
2017-Jun-25 15:30N 48°50' W 005°32'14615.3
2017-Jun-25 06:00N 46°42' W 007°14'43211.1
2017-Jun-23 14:56N 40°01' W 010°56'1818.9
2017-Jun-23 13:58N 39°46' W 011°10'918.8
2017-Jun-23 13:30N 39°39' W 011°17'1419.0
2017-Jun-23 12:45N 39°26' W 011°25'818.8
2017-Jun-23 12:19N 39°19' W 011°28'618.3
2017-Jun-23 12:00N 39°13' W 011°30'917.7
2017-Jun-23 11:30N 39°05' W 011°34'917.6
2017-Jun-23 10:59N 38°56' W 011°38'2616.9
2017-Jun-23 09:28N 38°32' W 011°48'1416.4
2017-Jun-23 08:38N 38°19' W 011°53'416.6
2017-Jun-23 08:23N 38°15' W 011°55'14416.8
2017-Jun-22 23:48N 35°58' W 012°51'717.3
2017-Jun-22 23:23N 35°51' W 012°54'617.0
2017-Jun-22 23:00N 35°45' W 012°56'28917.3
2017-Jun-22 06:21N 31°10' W 014°43'1317.0
2017-Jun-22 05:33N 30°57' W 014°48'616.9
2017-Jun-22 05:12N 30°51' W 014°50'2317.0
2017-Jun-22 03:49N 30°29' W 014°58'616.9
2017-Jun-22 03:29N 30°24' W 015°00'1017.0
2017-Jun-22 02:53N 30°14' W 015°04'717.0
2017-Jun-22 02:30N 30°08' W 015°06'917.1
2017-Jun-22 01:58N 29°59' W 015°10'817.2
2017-Jun-22 01:30N 29°52' W 015°12'917.2
2017-Jun-22 01:00N 29°44' W 015°15'917.0
2017-Jun-22 00:30N 29°35' W 015°19'1017.1
2017-Jun-21 23:56N 29°26' W 015°22'1217.3
2017-Jun-21 23:16N 29°15' W 015°26'1017.0
2017-Jun-21 22:42N 29°06' W 015°29'316.6
2017-Jun-21 22:30N 29°03' W 015°31'1816.9
2017-Jun-21 21:25N 28°45' W 015°37'717.5
2017-Jun-21 21:00N 28°38' W 015°40'817.0
2017-Jun-21 20:30N 28°31' W 015°45'917.3
2017-Jun-21 20:00N 28°25' W 015°51'917.1
2017-Jun-21 19:30N 28°18' W 015°57'917.6
2017-Jun-21 19:00N 28°11' W 016°04'1516.9
2017-Jun-21 18:09N 28°00' W 016°14'516.5
2017-Jun-21 17:52N 27°56' W 016°16'716.9
2017-Jun-21 17:28N 27°49' W 016°17'  

Dump ship's entire track history